sensor_id;sensor_type;location;lat;lon;timestamp;pressure;altitude;pressure_sealevel;temperature;humidity
5691;BME280;2870;42.680;23.364;2023-02-15T00:00:54;96321.56;;;3.08;78.77
5691;BME280;2870;42.680;23.364;2023-02-15T00:03:21;96322.66;;;3.31;78.49
5691;BME280;2870;42.680;23.364;2023-02-15T00:05:48;96325.06;;;3.58;77.59
5691;BME280;2870;42.680;23.364;2023-02-15T00:08:15;96323.63;;;3.28;77.98
5691;BME280;2870;42.680;23.364;2023-02-15T00:10:42;96327.66;;;3.12;78.83
5691;BME280;2870;42.680;23.364;2023-02-15T00:13:10;96340.34;;;3.33;78.35
5691;BME280;2870;42.680;23.364;2023-02-15T00:15:37;96337.38;;;3.37;77.96
5691;BME280;2870;42.680;23.364;2023-02-15T00:18:04;96339.88;;;3.35;78.06
5691;BME280;2870;42.680;23.364;2023-02-15T00:20:30;96341.50;;;3.27;78.70
5691;BME280;2870;42.680;23.364;2023-02-15T00:22:58;96338.47;;;3.25;78.40
5691;BME280;2870;42.680;23.364;2023-02-15T00:25:25;96344.00;;;3.25;78.87
5691;BME280;2870;42.680;23.364;2023-02-15T00:27:52;96338.41;;;3.04;79.32
5691;BME280;2870;42.680;23.364;2023-02-15T00:30:20;96345.47;;;3.05;79.72
5691;BME280;2870;42.680;23.364;2023-02-15T00:32:47;96341.66;;;2.88;80.32
5691;BME280;2870;42.680;23.364;2023-02-15T00:35:14;96344.84;;;3.31;79.25
5691;BME280;2870;42.680;23.364;2023-02-15T00:37:41;96346.63;;;3.13;79.34
5691;BME280;2870;42.680;23.364;2023-02-15T00:40:09;96347.16;;;3.17;79.21
5691;BME280;2870;42.680;23.364;2023-02-15T00:42:35;96351.00;;;3.05;79.34
5691;BME280;2870;42.680;23.364;2023-02-15T00:45:02;96345.09;;;3.12;79.44
5691;BME280;2870;42.680;23.364;2023-02-15T00:47:31;96350.16;;;2.99;79.78
5691;BME280;2870;42.680;23.364;2023-02-15T00:49:58;96356.53;;;3.20;79.38
5691;BME280;2870;42.680;23.364;2023-02-15T00:52:25;96312.03;;;2.94;78.90
5691;BME280;2870;42.680;23.364;2023-02-15T00:54:52;96344.31;;;3.12;79.08
5691;BME280;2870;42.680;23.364;2023-02-15T00:57:18;96345.13;;;2.68;81.21
5691;BME280;2870;42.680;23.364;2023-02-15T00:59:45;96341.19;;;2.75;80.90
5691;BME280;2870;42.680;23.364;2023-02-15T01:02:12;96348.81;;;2.95;80.41
5691;BME280;2870;42.680;23.364;2023-02-15T01:04:40;96342.41;;;3.03;80.04
5691;BME280;2870;42.680;23.364;2023-02-15T01:07:07;96339.38;;;3.01;79.93
5691;BME280;2870;42.680;23.364;2023-02-15T01:09:33;96347.16;;;3.17;79.98
5691;BME280;2870;42.680;23.364;2023-02-15T01:12:00;96334.94;;;3.09;79.31
5691;BME280;2870;42.680;23.364;2023-02-15T01:14:27;96340.13;;;3.02;79.72
5691;BME280;2870;42.680;23.364;2023-02-15T01:16:54;96338.78;;;2.97;79.95
5691;BME280;2870;42.680;23.364;2023-02-15T01:19:21;96338.75;;;3.12;79.67
5691;BME280;2870;42.680;23.364;2023-02-15T01:21:49;96327.13;;;3.08;79.69
5691;BME280;2870;42.680;23.364;2023-02-15T01:24:16;96327.44;;;2.95;80.14
5691;BME280;2870;42.680;23.364;2023-02-15T01:26:43;96339.19;;;2.90;80.08
5691;BME280;2870;42.680;23.364;2023-02-15T01:29:10;96326.19;;;2.96;80.33
5691;BME280;2870;42.680;23.364;2023-02-15T01:31:36;96329.72;;;2.82;80.56
5691;BME280;2870;42.680;23.364;2023-02-15T01:34:04;96326.47;;;2.83;80.75
5691;BME280;2870;42.680;23.364;2023-02-15T01:36:33;96314.69;;;3.03;80.16
5691;BME280;2870;42.680;23.364;2023-02-15T01:39:02;96321.28;;;3.06;80.49
5691;BME280;2870;42.680;23.364;2023-02-15T01:41:28;96327.56;;;3.06;80.02
5691;BME280;2870;42.680;23.364;2023-02-15T01:43:57;96318.91;;;2.99;79.97
5691;BME280;2870;42.680;23.364;2023-02-15T01:46:28;96319.88;;;2.81;80.84
5691;BME280;2870;42.680;23.364;2023-02-15T01:49:03;96313.34;;;2.99;80.73
5691;BME280;2870;42.680;23.364;2023-02-15T01:51:34;96310.31;;;2.97;80.47
5691;BME280;2870;42.680;23.364;2023-02-15T01:54:08;96311.56;;;2.81;81.37
5691;BME280;2870;42.680;23.364;2023-02-15T01:56:38;96311.84;;;2.83;81.16
5691;BME280;2870;42.680;23.364;2023-02-15T01:59:08;96305.34;;;2.86;81.45
5691;BME280;2870;42.680;23.364;2023-02-15T02:01:36;96312.69;;;2.89;81.09
5691;BME280;2870;42.680;23.364;2023-02-15T02:04:10;96311.47;;;2.90;81.16
5691;BME280;2870;42.680;23.364;2023-02-15T02:06:39;96309.94;;;2.89;81.03
5691;BME280;2870;42.680;23.364;2023-02-15T02:09:07;96304.38;;;2.89;81.20
5691;BME280;2870;42.680;23.364;2023-02-15T02:11:35;96313.00;;;2.76;81.31
5691;BME280;2870;42.680;23.364;2023-02-15T02:14:02;96316.53;;;2.77;81.64
5691;BME280;2870;42.680;23.364;2023-02-15T02:16:34;96317.03;;;2.75;81.82
5691;BME280;2870;42.680;23.364;2023-02-15T02:19:22;96318.75;;;2.73;81.76
5691;BME280;2870;42.680;23.364;2023-02-15T02:22:11;96340.41;;;2.89;81.45
5691;BME280;2870;42.680;23.364;2023-02-15T02:25:11;96326.94;;;2.82;81.66
5691;BME280;2870;42.680;23.364;2023-02-15T02:27:44;96326.19;;;2.81;81.56
5691;BME280;2870;42.680;23.364;2023-02-15T02:30:35;96327.91;;;2.79;81.76
5691;BME280;2870;42.680;23.364;2023-02-15T02:33:24;96325.81;;;2.74;81.84
5691;BME280;2870;42.680;23.364;2023-02-15T02:36:00;96320.66;;;2.81;81.90
5691;BME280;2870;42.680;23.364;2023-02-15T02:38:36;96326.09;;;2.76;82.10
5691;BME280;2870;42.680;23.364;2023-02-15T02:41:10;96332.50;;;2.82;81.97
5691;BME280;2870;42.680;23.364;2023-02-15T02:43:46;96298.13;;;2.59;81.98
5691;BME280;2870;42.680;23.364;2023-02-15T02:46:24;96327.34;;;2.75;82.38
5691;BME280;2870;42.680;23.364;2023-02-15T02:48:55;96329.34;;;2.59;82.91
5691;BME280;2870;42.680;23.364;2023-02-15T02:51:22;96325.81;;;2.74;82.57
5691;BME280;2870;42.680;23.364;2023-02-15T02:53:52;96327.63;;;2.77;82.66
5691;BME280;2870;42.680;23.364;2023-02-15T02:56:24;96334.50;;;2.81;83.11
5691;BME280;2870;42.680;23.364;2023-02-15T02:58:56;96323.31;;;2.76;82.44
5691;BME280;2870;42.680;23.364;2023-02-15T03:01:28;96335.84;;;2.86;82.37
5691;BME280;2870;42.680;23.364;2023-02-15T03:04:00;96336.72;;;2.62;83.54
5691;BME280;2870;42.680;23.364;2023-02-15T03:06:31;96337.44;;;2.78;82.88
5691;BME280;2870;42.680;23.364;2023-02-15T03:09:05;96344.63;;;2.70;83.22
5691;BME280;2870;42.680;23.364;2023-02-15T03:11:33;96347.13;;;2.68;83.35
5691;BME280;2870;42.680;23.364;2023-02-15T03:14:00;96352.19;;;2.69;83.27
5691;BME280;2870;42.680;23.364;2023-02-15T03:16:27;96359.44;;;2.81;83.34
5691;BME280;2870;42.680;23.364;2023-02-15T03:19:01;96346.25;;;2.91;82.87
5691;BME280;2870;42.680;23.364;2023-02-15T03:21:33;96340.03;;;2.96;82.81
5691;BME280;2870;42.680;23.364;2023-02-15T03:24:05;96349.97;;;2.88;82.80
5691;BME280;2870;42.680;23.364;2023-02-15T03:26:34;96344.22;;;3.06;82.41
5691;BME280;2870;42.680;23.364;2023-02-15T03:29:03;96339.47;;;3.07;82.29
5691;BME280;2870;42.680;23.364;2023-02-15T03:31:35;96338.00;;;3.11;81.90
5691;BME280;2870;42.680;23.364;2023-02-15T03:34:07;96340.03;;;2.96;82.67
5691;BME280;2870;42.680;23.364;2023-02-15T03:36:41;96330.28;;;2.86;82.88
5691;BME280;2870;42.680;23.364;2023-02-15T03:39:18;96341.16;;;3.19;82.24
5691;BME280;2870;42.680;23.364;2023-02-15T03:41:53;96332.94;;;3.10;82.32
5691;BME280;2870;42.680;23.364;2023-02-15T03:44:26;96335.03;;;3.00;82.51
5691;BME280;2870;42.680;23.364;2023-02-15T03:47:00;96323.50;;;3.02;82.55
5691;BME280;2870;42.680;23.364;2023-02-15T03:49:36;96339.38;;;3.01;82.90
5691;BME280;2870;42.680;23.364;2023-02-15T03:52:06;96335.75;;;2.95;83.33
5691;BME280;2870;42.680;23.364;2023-02-15T03:54:35;96343.75;;;3.08;82.83
5691;BME280;2870;42.680;23.364;2023-02-15T03:57:18;96350.81;;;3.24;82.36
5691;BME280;2870;42.680;23.364;2023-02-15T04:00:08;96345.88;;;3.33;81.93
5691;BME280;2870;42.680;23.364;2023-02-15T04:03:08;96339.63;;;3.18;82.31
5691;BME280;2870;42.680;23.364;2023-02-15T04:05:37;96338.41;;;3.04;82.77
5691;BME280;2870;42.680;23.364;2023-02-15T04:08:04;96346.78;;;3.25;82.60
5691;BME280;2870;42.680;23.364;2023-02-15T04:10:31;96354.50;;;3.35;82.06
5691;BME280;2870;42.680;23.364;2023-02-15T04:13:15;96360.13;;;3.41;81.94
5691;BME280;2870;42.680;23.364;2023-02-15T04:15:42;96366.69;;;3.58;81.82
5691;BME280;2870;42.680;23.364;2023-02-15T04:18:27;96356.63;;;3.61;81.23
5691;BME280;2870;42.680;23.364;2023-02-15T04:21:13;96360.19;;;3.82;80.84
5691;BME280;2870;42.680;23.364;2023-02-15T04:23:57;96350.81;;;3.79;79.85
5691;BME280;2870;42.680;23.364;2023-02-15T04:26:41;96368.47;;;3.61;80.14
5691;BME280;2870;42.680;23.364;2023-02-15T04:29:08;96386.97;;;3.50;81.04
5691;BME280;2870;42.680;23.364;2023-02-15T04:31:35;96354.53;;;3.56;80.30
5691;BME280;2870;42.680;23.364;2023-02-15T04:34:02;96386.50;;;3.51;80.80
5691;BME280;2870;42.680;23.364;2023-02-15T04:36:30;96392.59;;;3.55;81.09
5691;BME280;2870;42.680;23.364;2023-02-15T04:38:56;96389.56;;;3.53;80.98
5691;BME280;2870;42.680;23.364;2023-02-15T04:41:23;96384.38;;;3.61;81.07
5691;BME280;2870;42.680;23.364;2023-02-15T04:43:50;96392.50;;;3.64;81.13
5691;BME280;2870;42.680;23.364;2023-02-15T04:46:17;96390.25;;;3.68;80.93
5691;BME280;2870;42.680;23.364;2023-02-15T04:48:43;96388.16;;;3.43;81.28
5691;BME280;2870;42.680;23.364;2023-02-15T04:51:11;96386.78;;;3.53;81.44
5691;BME280;2870;42.680;23.364;2023-02-15T04:53:39;96389.50;;;3.33;81.98
5691;BME280;2870;42.680;23.364;2023-02-15T04:56:06;96398.41;;;3.37;82.00
5691;BME280;2870;42.680;23.364;2023-02-15T04:58:33;96390.69;;;3.61;81.57
5691;BME280;2870;42.680;23.364;2023-02-15T05:01:00;96398.41;;;3.72;81.30
5691;BME280;2870;42.680;23.364;2023-02-15T05:03:27;96396.22;;;3.61;80.92
5691;BME280;2870;42.680;23.364;2023-02-15T05:05:54;96406.22;;;3.53;81.19
5691;BME280;2870;42.680;23.364;2023-02-15T05:08:21;96403.75;;;3.76;81.03
5691;BME280;2870;42.680;23.364;2023-02-15T05:10:49;96399.66;;;3.71;80.58
5691;BME280;2870;42.680;23.364;2023-02-15T05:13:16;96410.78;;;3.56;81.14
5691;BME280;2870;42.680;23.364;2023-02-15T05:15:47;96406.16;;;3.68;81.14
5691;BME280;2870;42.680;23.364;2023-02-15T05:18:14;96412.31;;;3.57;81.09
5691;BME280;2870;42.680;23.364;2023-02-15T05:20:41;96403.59;;;3.64;81.19
5691;BME280;2870;42.680;23.364;2023-02-15T05:23:08;96413.41;;;3.80;80.86
5691;BME280;2870;42.680;23.364;2023-02-15T05:25:34;96421.09;;;3.91;80.03
5691;BME280;2870;42.680;23.364;2023-02-15T05:28:20;96433.03;;;4.32;78.87
5691;BME280;2870;42.680;23.364;2023-02-15T05:30:49;96423.06;;;4.05;79.03
5691;BME280;2870;42.680;23.364;2023-02-15T05:33:16;96432.69;;;3.89;79.67
5691;BME280;2870;42.680;23.364;2023-02-15T05:35:43;96421.75;;;3.80;79.57
5691;BME280;2870;42.680;23.364;2023-02-15T05:38:10;96426.38;;;3.89;79.74
5691;BME280;2870;42.680;23.364;2023-02-15T05:40:37;96432.44;;;3.87;80.22
5691;BME280;2870;42.680;23.364;2023-02-15T05:43:04;96425.66;;;3.73;80.67
5691;BME280;2870;42.680;23.364;2023-02-15T05:45:32;96399.88;;;3.88;79.43
5691;BME280;2870;42.680;23.364;2023-02-15T05:47:58;96437.66;;;4.00;79.28
5691;BME280;2870;42.680;23.364;2023-02-15T05:50:25;96433.13;;;4.03;79.21
5691;BME280;2870;42.680;23.364;2023-02-15T05:52:52;96434.97;;;3.91;79.39
5691;BME280;2870;42.680;23.364;2023-02-15T05:55:19;96438.81;;;3.93;80.14
5691;BME280;2870;42.680;23.364;2023-02-15T05:57:46;96430.78;;;4.16;79.03
5691;BME280;2870;42.680;23.364;2023-02-15T06:00:14;96434.06;;;4.14;78.99
5691;BME280;2870;42.680;23.364;2023-02-15T06:02:42;96440.16;;;3.98;78.96
5691;BME280;2870;42.680;23.364;2023-02-15T06:05:09;96432.34;;;3.82;79.61
5691;BME280;2870;42.680;23.364;2023-02-15T06:07:35;96411.75;;;3.53;80.19
5691;BME280;2870;42.680;23.364;2023-02-15T06:10:03;96438.59;;;3.62;80.60
5691;BME280;2870;42.680;23.364;2023-02-15T06:12:30;96436.06;;;3.58;80.85
5691;BME280;2870;42.680;23.364;2023-02-15T06:14:57;96434.66;;;3.68;81.24
5691;BME280;2870;42.680;23.364;2023-02-15T06:17:23;96439.16;;;4.01;80.21
5691;BME280;2870;42.680;23.364;2023-02-15T06:19:51;96437.84;;;3.61;80.34
5691;BME280;2870;42.680;23.364;2023-02-15T06:22:18;96453.06;;;3.66;80.54
5691;BME280;2870;42.680;23.364;2023-02-15T06:24:45;96455.84;;;3.66;80.63
5691;BME280;2870;42.680;23.364;2023-02-15T06:27:12;96453.19;;;3.92;79.54
5691;BME280;2870;42.680;23.364;2023-02-15T06:29:39;96449.69;;;4.32;78.72
5691;BME280;2870;42.680;23.364;2023-02-15T06:32:06;96446.28;;;4.22;78.53
5691;BME280;2870;42.680;23.364;2023-02-15T06:34:32;96447.78;;;4.23;78.11
5691;BME280;2870;42.680;23.364;2023-02-15T06:37:01;96446.41;;;4.54;77.05
5691;BME280;2870;42.680;23.364;2023-02-15T06:39:27;96447.88;;;4.49;77.20
5691;BME280;2870;42.680;23.364;2023-02-15T06:41:54;96438.63;;;4.58;77.15
5691;BME280;2870;42.680;23.364;2023-02-15T06:44:21;96449.31;;;4.65;75.90
5691;BME280;2870;42.680;23.364;2023-02-15T06:46:48;96418.56;;;4.48;76.49
5691;BME280;2870;42.680;23.364;2023-02-15T06:49:15;96445.63;;;4.53;75.83
5691;BME280;2870;42.680;23.364;2023-02-15T06:51:41;96450.59;;;4.44;76.42
5691;BME280;2870;42.680;23.364;2023-02-15T06:54:10;96444.59;;;4.71;76.30
5691;BME280;2870;42.680;23.364;2023-02-15T06:56:37;96439.88;;;4.37;76.46
5691;BME280;2870;42.680;23.364;2023-02-15T06:59:04;96448.47;;;4.59;76.12
5691;BME280;2870;42.680;23.364;2023-02-15T07:01:31;96453.47;;;4.75;74.82
5691;BME280;2870;42.680;23.364;2023-02-15T07:03:58;96443.56;;;4.95;74.81
5691;BME280;2870;42.680;23.364;2023-02-15T07:06:25;96435.84;;;5.10;73.95
5691;BME280;2870;42.680;23.364;2023-02-15T07:08:52;96441.19;;;5.40;73.64
5691;BME280;2870;42.680;23.364;2023-02-15T07:11:20;96438.22;;;4.91;73.72
5691;BME280;2870;42.680;23.364;2023-02-15T07:14:04;96450.06;;;5.12;73.31
5691;BME280;2870;42.680;23.364;2023-02-15T07:16:31;96419.56;;;4.71;74.07
5691;BME280;2870;42.680;23.364;2023-02-15T07:18:58;96450.16;;;4.97;73.48
5691;BME280;2870;42.680;23.364;2023-02-15T07:21:25;96448.91;;;5.24;73.15
5691;BME280;2870;42.680;23.364;2023-02-15T07:23:52;96469.00;;;4.88;73.76
5691;BME280;2870;42.680;23.364;2023-02-15T07:26:20;96456.69;;;5.20;72.37
5691;BME280;2870;42.680;23.364;2023-02-15T07:28:47;96456.09;;;5.68;71.56
5691;BME280;2870;42.680;23.364;2023-02-15T07:31:14;96450.59;;;5.16;72.37
5691;BME280;2870;42.680;23.364;2023-02-15T07:33:40;96447.19;;;5.32;72.29
5691;BME280;2870;42.680;23.364;2023-02-15T07:36:08;96439.94;;;5.78;71.55
5691;BME280;2870;42.680;23.364;2023-02-15T07:38:38;96436.38;;;6.09;69.87
5691;BME280;2870;42.680;23.364;2023-02-15T07:41:07;96445.44;;;5.98;69.50
5691;BME280;2870;42.680;23.364;2023-02-15T07:43:37;96436.06;;;5.32;71.04
5691;BME280;2870;42.680;23.364;2023-02-15T07:46:06;96442.13;;;6.00;69.48
5691;BME280;2870;42.680;23.364;2023-02-15T07:48:34;96439.97;;;6.15;68.93
5691;BME280;2870;42.680;23.364;2023-02-15T07:51:03;96449.84;;;6.16;67.80
5691;BME280;2870;42.680;23.364;2023-02-15T07:53:30;96441.97;;;5.77;68.86
5691;BME280;2870;42.680;23.364;2023-02-15T07:55:58;96446.66;;;5.60;70.12
5691;BME280;2870;42.680;23.364;2023-02-15T07:58:25;96444.69;;;5.35;70.87
5691;BME280;2870;42.680;23.364;2023-02-15T08:01:14;96440.75;;;5.47;71.50
5691;BME280;2870;42.680;23.364;2023-02-15T08:03:41;96438.00;;;5.52;70.02
5691;BME280;2870;42.680;23.364;2023-02-15T08:06:08;96445.03;;;5.16;71.69
5691;BME280;2870;42.680;23.364;2023-02-15T08:08:35;96443.03;;;5.48;71.23
5691;BME280;2870;42.680;23.364;2023-02-15T08:11:06;96442.25;;;6.22;69.64
5691;BME280;2870;42.680;23.364;2023-02-15T08:13:53;96444.31;;;6.27;67.95
5691;BME280;2870;42.680;23.364;2023-02-15T08:16:23;96450.00;;;6.50;67.74
5691;BME280;2870;42.680;23.364;2023-02-15T08:18:51;96452.59;;;6.64;66.57
5691;BME280;2870;42.680;23.364;2023-02-15T08:21:19;96444.19;;;6.53;66.53
5691;BME280;2870;42.680;23.364;2023-02-15T08:23:46;96442.84;;;6.37;66.88
5691;BME280;2870;42.680;23.364;2023-02-15T08:26:13;96446.56;;;6.23;67.86
5691;BME280;2870;42.680;23.364;2023-02-15T08:28:42;96450.25;;;5.98;68.90
5691;BME280;2870;42.680;23.364;2023-02-15T08:31:10;96450.59;;;5.79;68.70
5691;BME280;2870;42.680;23.364;2023-02-15T08:33:40;96452.13;;;5.80;68.78
5691;BME280;2870;42.680;23.364;2023-02-15T08:36:09;96448.59;;;5.48;68.65
5691;BME280;2870;42.680;23.364;2023-02-15T08:38:36;96454.00;;;5.95;68.45
5691;BME280;2870;42.680;23.364;2023-02-15T08:41:15;96449.66;;;6.31;67.08
5691;BME280;2870;42.680;23.364;2023-02-15T08:43:43;96459.59;;;5.63;67.47
5691;BME280;2870;42.680;23.364;2023-02-15T08:46:11;96458.25;;;5.84;67.79
5691;BME280;2870;42.680;23.364;2023-02-15T08:48:40;96456.78;;;5.57;68.55
5691;BME280;2870;42.680;23.364;2023-02-15T08:51:10;96462.34;;;5.57;69.43
5691;BME280;2870;42.680;23.364;2023-02-15T08:53:38;96454.00;;;5.95;68.22
5691;BME280;2870;42.680;23.364;2023-02-15T08:56:05;96462.97;;;5.78;68.10
5691;BME280;2870;42.680;23.364;2023-02-15T08:58:32;96454.06;;;6.06;67.17
5691;BME280;2870;42.680;23.364;2023-02-15T09:00:59;96434.56;;;6.06;65.88
5691;BME280;2870;42.680;23.364;2023-02-15T09:03:27;96456.91;;;6.11;64.78
5691;BME280;2870;42.680;23.364;2023-02-15T09:06:00;96459.84;;;5.97;65.13
5691;BME280;2870;42.680;23.364;2023-02-15T09:08:28;96453.44;;;6.28;65.00
5691;BME280;2870;42.680;23.364;2023-02-15T09:11:04;96456.84;;;6.49;65.02
5691;BME280;2870;42.680;23.364;2023-02-15T09:13:31;96445.16;;;6.45;63.94
5691;BME280;2870;42.680;23.364;2023-02-15T09:16:00;96456.34;;;6.50;63.79
5691;BME280;2870;42.680;23.364;2023-02-15T09:18:26;96455.09;;;6.62;64.14
5691;BME280;2870;42.680;23.364;2023-02-15T09:20:54;96425.50;;;6.71;61.91
5691;BME280;2870;42.680;23.364;2023-02-15T09:23:22;96447.41;;;6.41;63.16
5691;BME280;2870;42.680;23.364;2023-02-15T09:25:48;96443.84;;;6.34;64.07
5691;BME280;2870;42.680;23.364;2023-02-15T09:28:15;96461.09;;;6.38;63.31
5691;BME280;2870;42.680;23.364;2023-02-15T09:30:42;96455.66;;;6.72;62.18
5691;BME280;2870;42.680;23.364;2023-02-15T09:33:09;96455.13;;;6.68;62.88
5691;BME280;2870;42.680;23.364;2023-02-15T09:35:36;96452.34;;;6.68;63.01
5691;BME280;2870;42.680;23.364;2023-02-15T09:38:02;96453.00;;;6.46;63.08
5691;BME280;2870;42.680;23.364;2023-02-15T09:40:35;96459.09;;;6.45;62.69
5691;BME280;2870;42.680;23.364;2023-02-15T09:43:19;96447.16;;;6.38;63.93
5691;BME280;2870;42.680;23.364;2023-02-15T09:46:05;96460.28;;;6.86;62.23
5691;BME280;2870;42.680;23.364;2023-02-15T09:48:40;96448.53;;;6.66;61.36
5691;BME280;2870;42.680;23.364;2023-02-15T09:51:22;96459.56;;;7.25;60.43
5691;BME280;2870;42.680;23.364;2023-02-15T09:54:06;96455.03;;;7.28;61.23
5691;BME280;2870;42.680;23.364;2023-02-15T09:56:42;96452.50;;;7.58;60.05
5691;BME280;2870;42.680;23.364;2023-02-15T09:59:17;96444.13;;;7.41;59.76
5691;BME280;2870;42.680;23.364;2023-02-15T10:01:52;96444.38;;;7.32;60.00
5691;BME280;2870;42.680;23.364;2023-02-15T10:04:40;96436.00;;;7.54;59.03
5691;BME280;2870;42.680;23.364;2023-02-15T10:07:21;96443.09;;;7.83;58.74
5691;BME280;2870;42.680;23.364;2023-02-15T10:10:04;96445.09;;;7.88;58.89
5691;BME280;2870;42.680;23.364;2023-02-15T10:12:46;96442.81;;;7.98;58.70
5691;BME280;2870;42.680;23.364;2023-02-15T10:15:32;96443.59;;;7.54;59.41
5691;BME280;2870;42.680;23.364;2023-02-15T10:18:19;96439.81;;;7.29;60.26
5691;BME280;2870;42.680;23.364;2023-02-15T10:20:55;96432.41;;;6.92;61.48
5691;BME280;2870;42.680;23.364;2023-02-15T10:23:42;96387.88;;;6.44;62.23
5691;BME280;2870;42.680;23.364;2023-02-15T10:26:18;96423.16;;;6.58;61.78
5691;BME280;2870;42.680;23.364;2023-02-15T10:28:49;96428.66;;;7.34;59.96
5691;BME280;2870;42.680;23.364;2023-02-15T10:31:23;96421.28;;;7.42;58.92
5691;BME280;2870;42.680;23.364;2023-02-15T10:34:01;96426.09;;;7.42;59.26
5691;BME280;2870;42.680;23.364;2023-02-15T10:36:44;96421.41;;;6.60;61.31
5691;BME280;2870;42.680;23.364;2023-02-15T10:39:20;96427.81;;;6.24;62.85
5691;BME280;2870;42.680;23.364;2023-02-15T10:42:00;96399.53;;;6.42;61.99
5691;BME280;2870;42.680;23.364;2023-02-15T10:44:44;96404.03;;;7.50;60.09
5691;BME280;2870;42.680;23.364;2023-02-15T10:47:37;96402.03;;;9.66;55.23
5691;BME280;2870;42.680;23.364;2023-02-15T10:50:29;96400.72;;;9.72;53.04
5691;BME280;2870;42.680;23.364;2023-02-15T10:53:13;96409.47;;;10.61;51.58
5691;BME280;2870;42.680;23.364;2023-02-15T10:55:52;96402.59;;;10.13;52.12
5691;BME280;2870;42.680;23.364;2023-02-15T10:58:34;96402.13;;;9.54;52.59
5691;BME280;2870;42.680;23.364;2023-02-15T11:01:13;96404.28;;;9.97;51.23
5691;BME280;2870;42.680;23.364;2023-02-15T11:06:50;96396.13;;;8.68;53.53
5691;BME280;2870;42.680;23.364;2023-02-15T11:09:22;96391.31;;;9.04;53.71
5691;BME280;2870;42.680;23.364;2023-02-15T11:11:52;96398.00;;;9.31;53.85
5691;BME280;2870;42.680;23.364;2023-02-15T11:14:27;96387.63;;;9.80;53.42
5691;BME280;2870;42.680;23.364;2023-02-15T11:17:06;96398.50;;;9.90;53.16
5691;BME280;2870;42.680;23.364;2023-02-15T11:19:39;96395.06;;;10.02;50.70
5691;BME280;2870;42.680;23.364;2023-02-15T11:22:09;96394.91;;;9.35;51.65
5691;BME280;2870;42.680;23.364;2023-02-15T11:24:42;96404.59;;;9.34;53.11
5691;BME280;2870;42.680;23.364;2023-02-15T11:27:19;96390.78;;;9.06;53.74
5691;BME280;2870;42.680;23.364;2023-02-15T11:29:56;96390.16;;;9.24;53.04
5691;BME280;2870;42.680;23.364;2023-02-15T11:32:29;96389.81;;;9.63;53.07
5691;BME280;2870;42.680;23.364;2023-02-15T11:35:00;96398.53;;;9.24;53.77
5691;BME280;2870;42.680;23.364;2023-02-15T11:37:34;96385.59;;;8.85;53.14
5691;BME280;2870;42.680;23.364;2023-02-15T11:40:03;96382.91;;;9.04;54.33
5691;BME280;2870;42.680;23.364;2023-02-15T11:42:40;96388.16;;;8.77;53.88
5691;BME280;2870;42.680;23.364;2023-02-15T11:45:19;96380.47;;;8.31;54.76
5691;BME280;2870;42.680;23.364;2023-02-15T11:47:49;96382.78;;;8.85;54.76
5691;BME280;2870;42.680;23.364;2023-02-15T11:50:20;96366.72;;;8.91;54.27
5691;BME280;2870;42.680;23.364;2023-02-15T11:52:48;96373.81;;;8.98;53.24
5691;BME280;2870;42.680;23.364;2023-02-15T11:55:20;96367.41;;;9.03;53.40
5691;BME280;2870;42.680;23.364;2023-02-15T11:57:51;96356.09;;;8.26;54.80
5691;BME280;2870;42.680;23.364;2023-02-15T12:00:29;96353.50;;;8.39;53.97
5691;BME280;2870;42.680;23.364;2023-02-15T12:03:08;96338.69;;;8.56;53.83
5691;BME280;2870;42.680;23.364;2023-02-15T12:05:40;96350.72;;;8.86;53.32
5691;BME280;2870;42.680;23.364;2023-02-15T12:08:13;96347.13;;;8.44;54.21
5691;BME280;2870;42.680;23.364;2023-02-15T12:10:49;96342.53;;;8.53;53.52
5691;BME280;2870;42.680;23.364;2023-02-15T12:13:20;96333.94;;;8.34;54.50
5691;BME280;2870;42.680;23.364;2023-02-15T12:15:48;96337.63;;;8.64;53.98
5691;BME280;2870;42.680;23.364;2023-02-15T12:18:35;96337.13;;;8.66;54.90
5691;BME280;2870;42.680;23.364;2023-02-15T12:21:07;96333.44;;;8.41;54.54
5691;BME280;2870;42.680;23.364;2023-02-15T12:23:34;96336.75;;;8.39;55.19
5691;BME280;2870;42.680;23.364;2023-02-15T12:26:06;96324.53;;;8.42;55.40
5691;BME280;2870;42.680;23.364;2023-02-15T12:28:35;96320.31;;;8.66;54.13
5691;BME280;2870;42.680;23.364;2023-02-15T12:31:06;96332.25;;;8.14;55.10
5691;BME280;2870;42.680;23.364;2023-02-15T12:33:40;96327.41;;;8.20;55.54
5691;BME280;2870;42.680;23.364;2023-02-15T12:36:14;96325.63;;;8.22;54.99
5691;BME280;2870;42.680;23.364;2023-02-15T12:38:42;96313.63;;;8.39;54.61
5691;BME280;2870;42.680;23.364;2023-02-15T12:41:22;96313.06;;;8.87;53.77
5691;BME280;2870;42.680;23.364;2023-02-15T12:44:04;96309.63;;;8.70;53.68
5691;BME280;2870;42.680;23.364;2023-02-15T12:46:31;96302.19;;;8.31;55.08
5691;BME280;2870;42.680;23.364;2023-02-15T12:49:07;96297.84;;;8.41;53.50
5691;BME280;2870;42.680;23.364;2023-02-15T12:51:46;96300.59;;;7.94;55.61
5691;BME280;2870;42.680;23.364;2023-02-15T12:54:33;96284.69;;;8.25;54.70
5691;BME280;2870;42.680;23.364;2023-02-15T12:57:23;96295.56;;;7.76;55.45
5691;BME280;2870;42.680;23.364;2023-02-15T12:59:53;96269.09;;;7.88;55.83
5691;BME280;2870;42.680;23.364;2023-02-15T13:02:23;96288.81;;;8.18;54.52
5691;BME280;2870;42.680;23.364;2023-02-15T13:04:53;96294.78;;;8.45;54.33
5691;BME280;2870;42.680;23.364;2023-02-15T13:07:21;96294.16;;;8.11;54.42
5691;BME280;2870;42.680;23.364;2023-02-15T13:09:49;96286.44;;;8.28;55.17
5691;BME280;2870;42.680;23.364;2023-02-15T13:12:20;96281.00;;;8.53;53.87
5691;BME280;2870;42.680;23.364;2023-02-15T13:14:50;96284.91;;;8.38;54.29
5691;BME280;2870;42.680;23.364;2023-02-15T13:17:21;96281.47;;;8.62;54.30
5691;BME280;2870;42.680;23.364;2023-02-15T13:19:58;96260.38;;;8.56;53.25
5691;BME280;2870;42.680;23.364;2023-02-15T13:22:34;96284.16;;;8.73;53.45
5691;BME280;2870;42.680;23.364;2023-02-15T13:25:04;96285.81;;;8.58;53.53
5691;BME280;2870;42.680;23.364;2023-02-15T13:27:37;96289.88;;;8.57;54.05
5691;BME280;2870;42.680;23.364;2023-02-15T13:30:16;96272.00;;;7.66;55.91
5691;BME280;2870;42.680;23.364;2023-02-15T13:32:49;96288.09;;;8.07;55.32
5691;BME280;2870;42.680;23.364;2023-02-15T13:35:20;96284.66;;;8.31;55.42
5691;BME280;2870;42.680;23.364;2023-02-15T13:38:05;96278.91;;;8.17;55.16
5691;BME280;2870;42.680;23.364;2023-02-15T13:40:35;96283.91;;;8.36;54.93
5691;BME280;2870;42.680;23.364;2023-02-15T13:43:12;96286.41;;;8.39;54.31
5691;BME280;2870;42.680;23.364;2023-02-15T13:45:56;96279.50;;;7.93;55.69
5691;BME280;2870;42.680;23.364;2023-02-15T13:48:34;96296.59;;;7.73;56.65